sensor_id;sensor_type;location;lat;lon;timestamp;P1;durP1;ratioP1;P2;durP2;ratioP2
2390;SDS011;22957;50.824;4.360;2024-03-17T00:01:44;4.10;;;2.47;;
2390;SDS011;22957;50.824;4.360;2024-03-17T00:04:09;5.57;;;2.80;;
2390;SDS011;22957;50.824;4.360;2024-03-17T00:06:35;4.10;;;2.50;;
2390;SDS011;22957;50.824;4.360;2024-03-17T00:09:00;6.00;;;3.10;;
2390;SDS011;22957;50.824;4.360;2024-03-17T00:11:31;5.73;;;3.23;;
2390;SDS011;22957;50.824;4.360;2024-03-17T00:13:58;3.83;;;2.33;;
2390;SDS011;22957;50.824;4.360;2024-03-17T00:16:23;4.40;;;2.47;;
2390;SDS011;22957;50.824;4.360;2024-03-17T00:18:49;10.43;;;3.03;;
2390;SDS011;22957;50.824;4.360;2024-03-17T00:21:14;4.30;;;2.60;;
2390;SDS011;22957;50.824;4.360;2024-03-17T00:23:40;5.40;;;2.80;;
2390;SDS011;22957;50.824;4.360;2024-03-17T00:26:06;6.27;;;2.80;;
2390;SDS011;22957;50.824;4.360;2024-03-17T00:28:32;7.63;;;2.67;;
2390;SDS011;22957;50.824;4.360;2024-03-17T00:30:58;9.33;;;3.10;;
2390;SDS011;22957;50.824;4.360;2024-03-17T00:33:24;3.93;;;2.70;;
2390;SDS011;22957;50.824;4.360;2024-03-17T00:35:50;3.97;;;2.17;;
2390;SDS011;22957;50.824;4.360;2024-03-17T00:38:16;4.10;;;2.57;;
2390;SDS011;22957;50.824;4.360;2024-03-17T00:40:41;5.73;;;3.10;;
2390;SDS011;22957;50.824;4.360;2024-03-17T00:43:07;5.00;;;2.80;;
2390;SDS011;22957;50.824;4.360;2024-03-17T00:45:33;4.83;;;2.47;;
2390;SDS011;22957;50.824;4.360;2024-03-17T00:47:58;8.83;;;2.97;;
2390;SDS011;22957;50.824;4.360;2024-03-17T00:50:24;6.70;;;2.83;;
2390;SDS011;22957;50.824;4.360;2024-03-17T00:52:50;14.40;;;2.50;;
2390;SDS011;22957;50.824;4.360;2024-03-17T00:55:15;4.50;;;2.80;;
2390;SDS011;22957;50.824;4.360;2024-03-17T00:57:41;4.00;;;2.37;;
2390;SDS011;22957;50.824;4.360;2024-03-17T01:00:07;7.00;;;3.03;;
2390;SDS011;22957;50.824;4.360;2024-03-17T01:02:36;8.50;;;2.60;;
2390;SDS011;22957;50.824;4.360;2024-03-17T01:05:03;4.80;;;2.93;;
2390;SDS011;22957;50.824;4.360;2024-03-17T01:07:32;3.90;;;2.90;;
2390;SDS011;22957;50.824;4.360;2024-03-17T01:09:58;5.63;;;2.90;;
2390;SDS011;22957;50.824;4.360;2024-03-17T01:12:23;5.00;;;2.80;;
2390;SDS011;22957;50.824;4.360;2024-03-17T01:14:50;9.43;;;4.00;;
2390;SDS011;22957;50.824;4.360;2024-03-17T01:17:15;6.77;;;3.77;;
2390;SDS011;22957;50.824;4.360;2024-03-17T01:19:44;10.60;;;3.97;;
2390;SDS011;22957;50.824;4.360;2024-03-17T01:22:09;6.47;;;3.97;;
2390;SDS011;22957;50.824;4.360;2024-03-17T01:24:35;9.17;;;3.63;;
2390;SDS011;22957;50.824;4.360;2024-03-17T01:27:01;5.93;;;4.10;;
2390;SDS011;22957;50.824;4.360;2024-03-17T01:29:26;9.30;;;3.67;;
2390;SDS011;22957;50.824;4.360;2024-03-17T01:31:52;4.93;;;3.30;;
2390;SDS011;22957;50.824;4.360;2024-03-17T01:34:18;8.87;;;3.57;;
2390;SDS011;22957;50.824;4.360;2024-03-17T01:36:44;8.83;;;3.60;;
2390;SDS011;22957;50.824;4.360;2024-03-17T01:39:10;6.10;;;3.57;;
2390;SDS011;22957;50.824;4.360;2024-03-17T01:41:36;5.83;;;3.40;;
2390;SDS011;22957;50.824;4.360;2024-03-17T01:44:02;4.50;;;3.27;;
2390;SDS011;22957;50.824;4.360;2024-03-17T01:46:28;7.80;;;4.00;;
2390;SDS011;22957;50.824;4.360;2024-03-17T01:48:54;8.97;;;3.90;;
2390;SDS011;22957;50.824;4.360;2024-03-17T01:51:20;7.07;;;3.80;;
2390;SDS011;22957;50.824;4.360;2024-03-17T01:53:47;12.13;;;5.60;;
2390;SDS011;22957;50.824;4.360;2024-03-17T01:56:13;5.30;;;3.83;;
2390;SDS011;22957;50.824;4.360;2024-03-17T01:58:43;10.23;;;4.30;;
2390;SDS011;22957;50.824;4.360;2024-03-17T02:01:10;5.10;;;3.57;;
2390;SDS011;22957;50.824;4.360;2024-03-17T02:03:39;6.87;;;3.70;;
2390;SDS011;22957;50.824;4.360;2024-03-17T02:06:05;6.90;;;3.37;;
2390;SDS011;22957;50.824;4.360;2024-03-17T02:08:45;5.90;;;2.70;;
2390;SDS011;22957;50.824;4.360;2024-03-17T02:11:28;9.10;;;4.67;;
2390;SDS011;22957;50.824;4.360;2024-03-17T02:13:56;7.07;;;3.70;;
2390;SDS011;22957;50.824;4.360;2024-03-17T02:16:22;7.77;;;4.40;;
2390;SDS011;22957;50.824;4.360;2024-03-17T02:18:49;5.77;;;3.77;;
2390;SDS011;22957;50.824;4.360;2024-03-17T02:21:19;4.37;;;3.27;;
2390;SDS011;22957;50.824;4.360;2024-03-17T02:23:47;8.53;;;3.50;;
2390;SDS011;22957;50.824;4.360;2024-03-17T02:26:13;11.20;;;3.50;;
2390;SDS011;22957;50.824;4.360;2024-03-17T02:28:42;5.87;;;3.20;;
2390;SDS011;22957;50.824;4.360;2024-03-17T02:31:10;7.50;;;3.47;;
2390;SDS011;22957;50.824;4.360;2024-03-17T02:33:36;4.03;;;3.27;;
2390;SDS011;22957;50.824;4.360;2024-03-17T02:36:03;5.67;;;4.00;;
2390;SDS011;22957;50.824;4.360;2024-03-17T02:38:32;8.17;;;3.27;;
2390;SDS011;22957;50.824;4.360;2024-03-17T02:41:17;5.73;;;3.30;;
2390;SDS011;22957;50.824;4.360;2024-03-17T02:43:43;3.87;;;2.90;;
2390;SDS011;22957;50.824;4.360;2024-03-17T02:46:13;6.33;;;3.60;;
2390;SDS011;22957;50.824;4.360;2024-03-17T02:48:40;6.07;;;3.10;;
2390;SDS011;22957;50.824;4.360;2024-03-17T02:51:10;6.43;;;3.27;;
2390;SDS011;22957;50.824;4.360;2024-03-17T02:53:38;101.73;;;94.90;;
2390;SDS011;22957;50.824;4.360;2024-03-17T02:56:04;178.57;;;166.27;;
2390;SDS011;22957;50.824;4.360;2024-03-17T02:58:31;4.40;;;3.27;;
2390;SDS011;22957;50.824;4.360;2024-03-17T03:00:58;6.10;;;3.17;;
2390;SDS011;22957;50.824;4.360;2024-03-17T03:03:24;33.30;;;30.83;;
2390;SDS011;22957;50.824;4.360;2024-03-17T03:05:49;7.77;;;3.80;;
2390;SDS011;22957;50.824;4.360;2024-03-17T03:08:17;5.33;;;2.93;;
2390;SDS011;22957;50.824;4.360;2024-03-17T03:10:44;9.93;;;3.90;;
2390;SDS011;22957;50.824;4.360;2024-03-17T03:13:10;5.73;;;3.50;;
2390;SDS011;22957;50.824;4.360;2024-03-17T03:15:36;5.00;;;3.10;;
2390;SDS011;22957;50.824;4.360;2024-03-17T03:18:01;6.63;;;3.60;;
2390;SDS011;22957;50.824;4.360;2024-03-17T03:20:27;4.60;;;3.13;;
2390;SDS011;22957;50.824;4.360;2024-03-17T03:22:53;7.00;;;3.10;;
2390;SDS011;22957;50.824;4.360;2024-03-17T03:25:19;5.80;;;3.47;;
2390;SDS011;22957;50.824;4.360;2024-03-17T03:27:44;4.97;;;3.73;;
2390;SDS011;22957;50.824;4.360;2024-03-17T03:30:10;6.40;;;3.20;;
2390;SDS011;22957;50.824;4.360;2024-03-17T03:32:37;7.67;;;4.00;;
2390;SDS011;22957;50.824;4.360;2024-03-17T03:35:03;4.00;;;3.13;;
2390;SDS011;22957;50.824;4.360;2024-03-17T03:37:30;9.77;;;3.60;;
2390;SDS011;22957;50.824;4.360;2024-03-17T03:39:57;8.47;;;3.20;;
2390;SDS011;22957;50.824;4.360;2024-03-17T03:42:23;8.00;;;2.80;;
2390;SDS011;22957;50.824;4.360;2024-03-17T03:44:49;13.30;;;3.20;;
2390;SDS011;22957;50.824;4.360;2024-03-17T03:47:15;5.93;;;3.47;;
2390;SDS011;22957;50.824;4.360;2024-03-17T03:49:40;8.07;;;3.40;;
2390;SDS011;22957;50.824;4.360;2024-03-17T03:52:06;5.77;;;3.37;;
2390;SDS011;22957;50.824;4.360;2024-03-17T03:54:32;6.40;;;3.70;;
2390;SDS011;22957;50.824;4.360;2024-03-17T03:56:58;5.70;;;2.57;;
2390;SDS011;22957;50.824;4.360;2024-03-17T03:59:24;7.37;;;3.37;;
2390;SDS011;22957;50.824;4.360;2024-03-17T04:01:50;9.40;;;3.47;;
2390;SDS011;22957;50.824;4.360;2024-03-17T04:04:15;6.00;;;3.53;;
2390;SDS011;22957;50.824;4.360;2024-03-17T04:06:41;7.03;;;3.13;;
2390;SDS011;22957;50.824;4.360;2024-03-17T04:09:07;4.83;;;3.30;;
2390;SDS011;22957;50.824;4.360;2024-03-17T04:11:34;7.90;;;3.70;;
2390;SDS011;22957;50.824;4.360;2024-03-17T04:14:00;7.30;;;3.70;;
2390;SDS011;22957;50.824;4.360;2024-03-17T04:16:27;5.17;;;3.40;;
2390;SDS011;22957;50.824;4.360;2024-03-17T04:18:53;7.17;;;3.77;;
2390;SDS011;22957;50.824;4.360;2024-03-17T04:21:18;6.27;;;3.50;;
2390;SDS011;22957;50.824;4.360;2024-03-17T04:23:46;6.27;;;3.50;;
2390;SDS011;22957;50.824;4.360;2024-03-17T04:26:11;6.77;;;3.43;;
2390;SDS011;22957;50.824;4.360;2024-03-17T04:28:38;5.00;;;3.50;;
2390;SDS011;22957;50.824;4.360;2024-03-17T04:31:06;7.00;;;4.07;;
2390;SDS011;22957;50.824;4.360;2024-03-17T04:33:33;12.77;;;3.73;;
2390;SDS011;22957;50.824;4.360;2024-03-17T04:35:59;7.63;;;3.70;;
2390;SDS011;22957;50.824;4.360;2024-03-17T04:38:25;8.40;;;4.03;;
2390;SDS011;22957;50.824;4.360;2024-03-17T04:40:52;7.10;;;3.40;;
2390;SDS011;22957;50.824;4.360;2024-03-17T04:43:24;5.80;;;3.30;;
2390;SDS011;22957;50.824;4.360;2024-03-17T04:45:58;7.60;;;3.67;;
2390;SDS011;22957;50.824;4.360;2024-03-17T04:48:29;9.00;;;3.40;;
2390;SDS011;22957;50.824;4.360;2024-03-17T04:50:55;8.60;;;4.20;;
2390;SDS011;22957;50.824;4.360;2024-03-17T04:53:21;7.40;;;4.40;;
2390;SDS011;22957;50.824;4.360;2024-03-17T04:55:46;5.23;;;3.60;;
2390;SDS011;22957;50.824;4.360;2024-03-17T04:58:12;9.67;;;4.17;;
2390;SDS011;22957;50.824;4.360;2024-03-17T05:00:37;7.90;;;3.70;;
2390;SDS011;22957;50.824;4.360;2024-03-17T05:03:03;5.00;;;3.50;;
2390;SDS011;22957;50.824;4.360;2024-03-17T05:05:29;10.07;;;3.87;;
2390;SDS011;22957;50.824;4.360;2024-03-17T05:07:55;5.47;;;3.93;;
2390;SDS011;22957;50.824;4.360;2024-03-17T05:10:20;5.70;;;3.63;;
2390;SDS011;22957;50.824;4.360;2024-03-17T05:12:46;8.47;;;4.33;;
2390;SDS011;22957;50.824;4.360;2024-03-17T05:15:13;8.83;;;3.83;;
2390;SDS011;22957;50.824;4.360;2024-03-17T05:17:38;7.60;;;3.30;;
2390;SDS011;22957;50.824;4.360;2024-03-17T05:20:04;4.83;;;3.73;;
2390;SDS011;22957;50.824;4.360;2024-03-17T05:22:31;8.63;;;4.33;;
2390;SDS011;22957;50.824;4.360;2024-03-17T05:24:56;6.13;;;3.63;;
2390;SDS011;22957;50.824;4.360;2024-03-17T05:27:22;5.07;;;3.30;;
2390;SDS011;22957;50.824;4.360;2024-03-17T05:29:48;5.20;;;3.13;;
2390;SDS011;22957;50.824;4.360;2024-03-17T05:32:15;9.87;;;4.27;;
2390;SDS011;22957;50.824;4.360;2024-03-17T05:34:41;3.70;;;3.00;;
2390;SDS011;22957;50.824;4.360;2024-03-17T05:37:08;6.83;;;3.33;;
2390;SDS011;22957;50.824;4.360;2024-03-17T05:39:33;7.73;;;4.00;;
2390;SDS011;22957;50.824;4.360;2024-03-17T05:41:59;7.00;;;4.00;;
2390;SDS011;22957;50.824;4.360;2024-03-17T05:44:24;5.13;;;3.10;;
2390;SDS011;22957;50.824;4.360;2024-03-17T05:46:50;9.70;;;3.80;;
2390;SDS011;22957;50.824;4.360;2024-03-17T05:49:18;6.63;;;3.00;;
2390;SDS011;22957;50.824;4.360;2024-03-17T05:51:46;5.70;;;3.20;;
2390;SDS011;22957;50.824;4.360;2024-03-17T05:54:11;4.50;;;3.10;;
2390;SDS011;22957;50.824;4.360;2024-03-17T05:56:37;7.40;;;3.50;;
2390;SDS011;22957;50.824;4.360;2024-03-17T05:59:02;6.43;;;3.67;;
2390;SDS011;22957;50.824;4.360;2024-03-17T06:01:28;8.70;;;3.70;;
2390;SDS011;22957;50.824;4.360;2024-03-17T06:03:53;8.63;;;3.30;;
2390;SDS011;22957;50.824;4.360;2024-03-17T06:06:19;4.73;;;3.10;;
2390;SDS011;22957;50.824;4.360;2024-03-17T06:08:45;6.23;;;3.43;;
2390;SDS011;22957;50.824;4.360;2024-03-17T06:11:10;4.60;;;3.47;;
2390;SDS011;22957;50.824;4.360;2024-03-17T06:13:36;6.70;;;4.40;;
2390;SDS011;22957;50.824;4.360;2024-03-17T06:16:02;5.77;;;3.27;;
2390;SDS011;22957;50.824;4.360;2024-03-17T06:18:28;4.13;;;2.90;;
2390;SDS011;22957;50.824;4.360;2024-03-17T06:20:54;7.20;;;3.80;;
2390;SDS011;22957;50.824;4.360;2024-03-17T06:23:23;8.80;;;3.50;;
2390;SDS011;22957;50.824;4.360;2024-03-17T06:25:49;7.67;;;3.30;;
2390;SDS011;22957;50.824;4.360;2024-03-17T06:28:16;7.17;;;3.70;;
2390;SDS011;22957;50.824;4.360;2024-03-17T06:30:45;11.20;;;3.53;;
2390;SDS011;22957;50.824;4.360;2024-03-17T06:33:18;7.90;;;3.10;;
2390;SDS011;22957;50.824;4.360;2024-03-17T06:35:44;9.00;;;3.87;;
2390;SDS011;22957;50.824;4.360;2024-03-17T06:38:12;4.00;;;3.00;;
2390;SDS011;22957;50.824;4.360;2024-03-17T06:40:38;5.57;;;3.40;;
2390;SDS011;22957;50.824;4.360;2024-03-17T06:43:04;10.80;;;3.53;;
2390;SDS011;22957;50.824;4.360;2024-03-17T06:45:30;7.73;;;3.57;;
2390;SDS011;22957;50.824;4.360;2024-03-17T06:47:56;9.40;;;4.47;;
2390;SDS011;22957;50.824;4.360;2024-03-17T06:50:22;6.97;;;3.30;;
2390;SDS011;22957;50.824;4.360;2024-03-17T06:52:48;6.60;;;3.27;;
2390;SDS011;22957;50.824;4.360;2024-03-17T06:55:13;4.60;;;2.93;;
2390;SDS011;22957;50.824;4.360;2024-03-17T06:57:42;9.17;;;4.17;;
2390;SDS011;22957;50.824;4.360;2024-03-17T07:00:11;5.23;;;3.17;;
2390;SDS011;22957;50.824;4.360;2024-03-17T07:02:41;7.50;;;3.23;;
2390;SDS011;22957;50.824;4.360;2024-03-17T07:05:11;8.10;;;3.77;;
2390;SDS011;22957;50.824;4.360;2024-03-17T07:07:39;5.80;;;3.30;;
2390;SDS011;22957;50.824;4.360;2024-03-17T07:10:05;8.53;;;2.90;;
2390;SDS011;22957;50.824;4.360;2024-03-17T07:12:31;7.80;;;3.47;;
2390;SDS011;22957;50.824;4.360;2024-03-17T07:14:56;10.97;;;3.87;;
2390;SDS011;22957;50.824;4.360;2024-03-17T07:17:22;7.90;;;3.67;;
2390;SDS011;22957;50.824;4.360;2024-03-17T07:19:47;8.63;;;3.17;;
2390;SDS011;22957;50.824;4.360;2024-03-17T07:22:14;6.20;;;3.00;;
2390;SDS011;22957;50.824;4.360;2024-03-17T07:24:40;3.77;;;2.93;;
2390;SDS011;22957;50.824;4.360;2024-03-17T07:27:05;7.93;;;3.33;;
2390;SDS011;22957;50.824;4.360;2024-03-17T07:29:35;6.23;;;3.10;;
2390;SDS011;22957;50.824;4.360;2024-03-17T07:32:00;5.50;;;3.10;;
2390;SDS011;22957;50.824;4.360;2024-03-17T07:34:30;5.60;;;4.00;;
2390;SDS011;22957;50.824;4.360;2024-03-17T07:36:56;17.27;;;15.70;;
2390;SDS011;22957;50.824;4.360;2024-03-17T07:39:21;174.67;;;163.30;;
2390;SDS011;22957;50.824;4.360;2024-03-17T07:41:47;366.77;;;339.80;;
2390;SDS011;22957;50.824;4.360;2024-03-17T07:44:13;292.57;;;271.57;;
2390;SDS011;22957;50.824;4.360;2024-03-17T07:46:38;5.50;;;3.53;;
2390;SDS011;22957;50.824;4.360;2024-03-17T07:49:04;3.53;;;3.10;;
2390;SDS011;22957;50.824;4.360;2024-03-17T07:51:30;5.40;;;3.20;;
2390;SDS011;22957;50.824;4.360;2024-03-17T07:53:55;6.73;;;3.40;;
2390;SDS011;22957;50.824;4.360;2024-03-17T07:56:21;5.67;;;3.50;;
2390;SDS011;22957;50.824;4.360;2024-03-17T07:58:47;2.63;;;2.23;;
2390;SDS011;22957;50.824;4.360;2024-03-17T08:01:15;10.20;;;3.43;;
2390;SDS011;22957;50.824;4.360;2024-03-17T08:03:42;5.93;;;3.20;;
2390;SDS011;22957;50.824;4.360;2024-03-17T08:06:10;6.60;;;3.47;;
2390;SDS011;22957;50.824;4.360;2024-03-17T08:08:36;5.07;;;3.57;;
2390;SDS011;22957;50.824;4.360;2024-03-17T08:11:02;5.10;;;2.47;;
2390;SDS011;22957;50.824;4.360;2024-03-17T08:13:28;7.57;;;2.90;;
2390;SDS011;22957;50.824;4.360;2024-03-17T08:15:59;5.87;;;2.80;;
2390;SDS011;22957;50.824;4.360;2024-03-17T08:18:26;6.87;;;3.10;;
2390;SDS011;22957;50.824;4.360;2024-03-17T08:20:54;8.33;;;2.73;;
2390;SDS011;22957;50.824;4.360;2024-03-17T08:23:21;5.63;;;2.87;;
2390;SDS011;22957;50.824;4.360;2024-03-17T08:25:56;6.23;;;3.10;;
2390;SDS011;22957;50.824;4.360;2024-03-17T08:28:23;7.17;;;3.23;;
2390;SDS011;22957;50.824;4.360;2024-03-17T08:30:56;5.83;;;2.67;;
2390;SDS011;22957;50.824;4.360;2024-03-17T08:33:23;8.63;;;3.20;;
2390;SDS011;22957;50.824;4.360;2024-03-17T08:35:54;2.83;;;2.47;;
2390;SDS011;22957;50.824;4.360;2024-03-17T08:38:24;4.20;;;2.80;;
2390;SDS011;22957;50.824;4.360;2024-03-17T08:40:51;6.73;;;2.63;;
2390;SDS011;22957;50.824;4.360;2024-03-17T08:43:18;9.73;;;2.57;;
2390;SDS011;22957;50.824;4.360;2024-03-17T08:45:44;6.43;;;2.53;;
2390;SDS011;22957;50.824;4.360;2024-03-17T08:48:10;4.10;;;2.60;;
2390;SDS011;22957;50.824;4.360;2024-03-17T08:50:36;6.93;;;3.13;;
2390;SDS011;22957;50.824;4.360;2024-03-17T08:53:02;12.50;;;2.63;;
2390;SDS011;22957;50.824;4.360;2024-03-17T08:55:28;6.50;;;2.43;;
2390;SDS011;22957;50.824;4.360;2024-03-17T08:57:54;5.80;;;2.70;;
2390;SDS011;22957;50.824;4.360;2024-03-17T09:00:19;2.50;;;2.30;;
2390;SDS011;22957;50.824;4.360;2024-03-17T09:02:45;4.40;;;2.20;;
2390;SDS011;22957;50.824;4.360;2024-03-17T09:05:10;7.17;;;2.77;;
2390;SDS011;22957;50.824;4.360;2024-03-17T09:07:37;5.13;;;2.37;;
2390;SDS011;22957;50.824;4.360;2024-03-17T09:10:03;44.67;;;39.50;;
2390;SDS011;22957;50.824;4.360;2024-03-17T09:12:30;350.20;;;323.50;;
2390;SDS011;22957;50.824;4.360;2024-03-17T09:14:55;152.10;;;141.90;;
2390;SDS011;22957;50.824;4.360;2024-03-17T09:17:21;63.97;;;59.50;;
2390;SDS011;22957;50.824;4.360;2024-03-17T09:19:47;200.33;;;186.13;;
2390;SDS011;22957;50.824;4.360;2024-03-17T09:22:12;508.43;;;466.57;;
2390;SDS011;22957;50.824;4.360;2024-03-17T09:24:38;230.83;;;214.10;;
2390;SDS011;22957;50.824;4.360;2024-03-17T09:27:05;181.90;;;169.07;;
2390;SDS011;22957;50.824;4.360;2024-03-17T09:29:31;78.53;;;73.13;;
2390;SDS011;22957;50.824;4.360;2024-03-17T09:31:58;150.47;;;140.93;;
2390;SDS011;22957;50.824;4.360;2024-03-17T09:34:23;204.33;;;190.57;;
2390;SDS011;22957;50.824;4.360;2024-03-17T09:36:49;157.13;;;146.70;;
2390;SDS011;22957;50.824;4.360;2024-03-17T09:39:15;267.77;;;248.13;;
2390;SDS011;22957;50.824;4.360;2024-03-17T09:41:41;134.60;;;125.90;;
2390;SDS011;22957;50.824;4.360;2024-03-17T09:44:09;183.90;;;170.90;;
2390;SDS011;22957;50.824;4.360;2024-03-17T09:46:38;170.33;;;158.50;;
2390;SDS011;22957;50.824;4.360;2024-03-17T09:49:04;221.13;;;205.57;;
2390;SDS011;22957;50.824;4.360;2024-03-17T09:51:29;197.37;;;183.43;;
2390;SDS011;22957;50.824;4.360;2024-03-17T09:53:57;275.07;;;254.73;;
2390;SDS011;22957;50.824;4.360;2024-03-17T09:56:22;146.57;;;136.90;;
2390;SDS011;22957;50.824;4.360;2024-03-17T09:58:50;145.17;;;134.87;;
2390;SDS011;22957;50.824;4.360;2024-03-17T10:01:16;74.23;;;69.27;;
2390;SDS011;22957;50.824;4.360;2024-03-17T10:06:23;77.60;;;72.13;;
2390;SDS011;22957;50.824;4.360;2024-03-17T10:09:01;119.63;;;112.17;;
2390;SDS011;22957;50.824;4.360;2024-03-17T10:11:34;221.40;;;205.77;;
2390;SDS011;22957;50.824;4.360;2024-03-17T10:14:03;269.80;;;250.97;;
2390;SDS011;22957;50.824;4.360;2024-03-17T10:16:33;163.07;;;151.63;;
2390;SDS011;22957;50.824;4.360;2024-03-17T10:21:36;77.07;;;71.93;;
2390;SDS011;22957;50.824;4.360;2024-03-17T10:24:06;198.37;;;184.77;;
2390;SDS011;22957;50.824;4.360;2024-03-17T10:31:53;132.00;;;122.90;;
2390;SDS011;22957;50.824;4.360;2024-03-17T10:34:19;140.47;;;130.60;;
2390;SDS011;22957;50.824;4.360;2024-03-17T10:36:46;224.03;;;208.77;;
2390;SDS011;22957;50.824;4.360;2024-03-17T10:39:25;196.10;;;181.40;;
2390;SDS011;22957;50.824;4.360;2024-03-17T10:41:58;324.83;;;300.57;;
2390;SDS011;22957;50.824;4.360;2024-03-17T10:44:28;270.90;;;251.43;;
2390;SDS011;22957;50.824;4.360;2024-03-17T10:46:55;306.70;;;283.63;;
2390;SDS011;22957;50.824;4.360;2024-03-17T10:49:32;252.27;;;233.83;;
2390;SDS011;22957;50.824;4.360;2024-03-17T10:52:03;339.70;;;313.60;;
2390;SDS011;22957;50.824;4.360;2024-03-17T10:54:30;83.20;;;77.57;;
2390;SDS011;22957;50.824;4.360;2024-03-17T10:59:46;221.50;;;206.00;;
2390;SDS011;22957;50.824;4.360;2024-03-17T11:02:17;337.30;;;311.30;;
2390;SDS011;22957;50.824;4.360;2024-03-17T11:04:50;621.20;;;569.00;;
2390;SDS011;22957;50.824;4.360;2024-03-17T11:07:18;426.03;;;389.17;;
2390;SDS011;22957;50.824;4.360;2024-03-17T11:09:45;565.27;;;516.40;;
2390;SDS011;22957;50.824;4.360;2024-03-17T11:15:34;291.23;;;269.53;;
2390;SDS011;22957;50.824;4.360;2024-03-17T11:20:38;12.13;;;7.80;;
2390;SDS011;22957;50.824;4.360;2024-03-17T11:23:08;6.20;;;2.60;;
2390;SDS011;22957;50.824;4.360;2024-03-17T11:25:37;407.47;;;373.63;;
2390;SDS011;22957;50.824;4.360;2024-03-17T11:28:03;4.10;;;2.23;;
2390;SDS011;22957;50.824;4.360;2024-03-17T11:38:53;4.00;;;1.50;;
2390;SDS011;22957;50.824;4.360;2024-03-17T11:41:39;6.80;;;1.77;;
2390;SDS011;22957;50.824;4.360;2024-03-17T11:46:43;5.20;;;1.10;;
2390;SDS011;22957;50.824;4.360;2024-03-17T11:51:53;3.30;;;1.10;;
2390;SDS011;22957;50.824;4.360;2024-03-17T11:54:24;4.93;;;1.37;;
2390;SDS011;22957;50.824;4.360;2024-03-17T11:56:55;4.20;;;1.20;;
2390;SDS011;22957;50.824;4.360;2024-03-17T11:59:26;5.43;;;1.00;;
2390;SDS011;22957;50.824;4.360;2024-03-17T12:01:52;4.93;;;1.07;;
2390;SDS011;22957;50.824;4.360;2024-03-17T12:04:18;6.47;;;1.70;;
2390;SDS011;22957;50.824;4.360;2024-03-17T12:06:48;2.70;;;1.00;;
2390;SDS011;22957;50.824;4.360;2024-03-17T12:09:22;4.90;;;1.43;;
2390;SDS011;22957;50.824;4.360;2024-03-17T12:12:04;4.37;;;1.63;;
2390;SDS011;22957;50.824;4.360;2024-03-17T12:14:33;10.50;;;1.37;;
2390;SDS011;22957;50.824;4.360;2024-03-17T12:17:01;4.43;;;1.07;;
2390;SDS011;22957;50.824;4.360;2024-03-17T12:19:28;5.80;;;1.60;;
2390;SDS011;22957;50.824;4.360;2024-03-17T12:21:55;5.60;;;1.27;;
2390;SDS011;22957;50.824;4.360;2024-03-17T12:24:23;6.70;;;1.03;;
2390;SDS011;22957;50.824;4.360;2024-03-17T12:26:51;3.83;;;1.40;;
2390;SDS011;22957;50.824;4.360;2024-03-17T12:29:30;6.20;;;1.27;;
2390;SDS011;22957;50.824;4.360;2024-03-17T12:32:16;3.37;;;1.10;;
2390;SDS011;22957;50.824;4.360;2024-03-17T12:34:44;4.70;;;1.20;;
2390;SDS011;22957;50.824;4.360;2024-03-17T12:37:17;6.30;;;1.13;;
2390;SDS011;22957;50.824;4.360;2024-03-17T12:39:44;5.20;;;1.20;;
2390;SDS011;22957;50.824;4.360;2024-03-17T12:42:14;4.20;;;1.30;;
2390;SDS011;22957;50.824;4.360;2024-03-17T12:44:49;3.60;;;1.00;;
2390;SDS011;22957;50.824;4.360;2024-03-17T12:47:16;3.70;;;1.20;;
2390;SDS011;22957;50.824;4.360;2024-03-17T12:49:46;4.83;;;1.10;;
2390;SDS011;22957;50.824;4.360;2024-03-17T12:52:34;4.20;;;1.30;;
2390;SDS011;22957;50.824;4.360;2024-03-17T12:55:01;6.40;;;1.00;;
2390;SDS011;22957;50.824;4.360;2024-03-17T12:57:46;2.53;;;1.10;;
2390;SDS011;22957;50.824;4.360;2024-03-17T13:00:35;4.87;;;1.30;;
2390;SDS011;22957;50.824;4.360;2024-03-17T13:03:01;12.03;;;1.70;;
2390;SDS011;22957;50.824;4.360;2024-03-17T13:05:31;3.87;;;1.23;;
2390;SDS011;22957;50.824;4.360;2024-03-17T13:07:57;4.97;;;1.37;;
2390;SDS011;22957;50.824;4.360;2024-03-17T13:10:26;5.97;;;1.30;;
2390;SDS011;22957;50.824;4.360;2024-03-17T13:13:01;5.00;;;1.03;;
2390;SDS011;22957;50.824;4.360;2024-03-17T13:15:29;3.00;;;1.30;;
2390;SDS011;22957;50.824;4.360;2024-03-17T13:18:00;4.53;;;1.27;;
2390;SDS011;22957;50.824;4.360;2024-03-17T13:20:25;8.10;;;1.20;;
2390;SDS011;22957;50.824;4.360;2024-03-17T13:22:51;4.40;;;1.37;;
2390;SDS011;22957;50.824;4.360;2024-03-17T13:25:18;3.17;;;0.90;;
2390;SDS011;22957;50.824;4.360;2024-03-17T13:27:46;4.23;;;1.10;;
2390;SDS011;22957;50.824;4.360;2024-03-17T13:30:13;4.20;;;1.57;;
2390;SDS011;22957;50.824;4.360;2024-03-17T13:32:40;3.30;;;1.00;;
2390;SDS011;22957;50.824;4.360;2024-03-17T13:35:19;3.87;;;1.00;;
2390;SDS011;22957;50.824;4.360;2024-03-17T13:37:46;3.10;;;0.97;;
2390;SDS011;22957;50.824;4.360;2024-03-17T13:40:13;2.03;;;0.90;;
2390;SDS011;22957;50.824;4.360;2024-03-17T13:42:47;4.93;;;1.20;;
2390;SDS011;22957;50.824;4.360;2024-03-17T13:45:17;4.90;;;1.20;;
2390;SDS011;22957;50.824;4.360;2024-03-17T13:47:46;6.60;;;1.47;;
2390;SDS011;22957;50.824;4.360;2024-03-17T13:50:22;4.43;;;1.30;;
2390;SDS011;22957;50.824;4.360;2024-03-17T13:52:48;2.03;;;1.10;;
2390;SDS011;22957;50.824;4.360;2024-03-17T13:57:43;4.00;;;1.00;;
2390;SDS011;22957;50.824;4.360;2024-03-17T14:00:10;9.63;;;1.57;;
2390;SDS011;22957;50.824;4.360;2024-03-17T14:02:41;5.80;;;1.50;;
2390;SDS011;22957;50.824;4.360;2024-03-17T14:05:14;6.23;;;1.37;;
2390;SDS011;22957;50.824;4.360;2024-03-17T14:07:41;9.97;;;1.47;;
2390;SDS011;22957;50.824;4.360;2024-03-17T14:10:08;5.10;;;1.30;;
2390;SDS011;22957;50.824;4.360;2024-03-17T14:12:35;3.90;;;1.40;;
2390;SDS011;22957;50.824;4.360;2024-03-17T14:15:01;3.97;;;1.30;;
2390;SDS011;22957;50.824;4.360;2024-03-17T14:17:29;4.93;;;1.40;;
2390;SDS011;22957;50.824;4.360;2024-03-17T14:19:54;4.73;;;1.20;;
2390;SDS011;22957;50.824;4.360;2024-03-17T14:22:20;4.37;;;1.20;;
2390;SDS011;22957;50.824;4.360;2024-03-17T14:24:46;6.53;;;1.30;;
2390;SDS011;22957;50.824;4.360;2024-03-17T14:27:12;6.17;;;1.30;;
2390;SDS011;22957;50.824;4.360;2024-03-17T14:29:38;3.83;;;1.00;;
2390;SDS011;22957;50.824;4.360;2024-03-17T14:32:03;5.50;;;1.30;;
2390;SDS011;22957;50.824;4.360;2024-03-17T14:34:29;6.63;;;1.10;;
2390;SDS011;22957;50.824;4.360;2024-03-17T14:37:03;6.80;;;1.07;;
2390;SDS011;22957;50.824;4.360;2024-03-17T14:39:29;4.00;;;1.10;;
2390;SDS011;22957;50.824;4.360;2024-03-17T14:41:58;7.67;;;1.07;;
2390;SDS011;22957;50.824;4.360;2024-03-17T14:44:23;4.23;;;1.30;;
2390;SDS011;22957;50.824;4.360;2024-03-17T14:46:49;2.33;;;1.00;;
2390;SDS011;22957;50.824;4.360;2024-03-17T14:49:21;6.20;;;1.40;;
2390;SDS011;22957;50.824;4.360;2024-03-17T14:51:47;3.57;;;1.10;;
2390;SDS011;22957;50.824;4.360;2024-03-17T14:54:15;7.57;;;1.60;;
2390;SDS011;22957;50.824;4.360;2024-03-17T14:56:42;6.67;;;1.33;;
2390;SDS011;22957;50.824;4.360;2024-03-17T14:59:07;7.60;;;1.10;;
2390;SDS011;22957;50.824;4.360;2024-03-17T15:01:33;6.30;;;1.20;;
2390;SDS011;22957;50.824;4.360;2024-03-17T15:03:59;5.83;;;1.10;;
2390;SDS011;22957;50.824;4.360;2024-03-17T15:06:25;7.73;;;1.33;;
2390;SDS011;22957;50.824;4.360;2024-03-17T15:08:52;4.50;;;1.50;;
2390;SDS011;22957;50.824;4.360;2024-03-17T15:11:18;1.83;;;1.10;;
2390;SDS011;22957;50.824;4.360;2024-03-17T15:13:43;6.40;;;0.90;;
2390;SDS011;22957;50.824;4.360;2024-03-17T15:16:10;2.60;;;1.00;;
2390;SDS011;22957;50.824;4.360;2024-03-17T15:18:36;4.10;;;0.90;;
2390;SDS011;22957;50.824;4.360;2024-03-17T15:21:03;4.27;;;1.30;;
2390;SDS011;22957;50.824;4.360;2024-03-17T15:23:31;6.47;;;1.10;;
2390;SDS011;22957;50.824;4.360;2024-03-17T15:26:01;9.50;;;1.30;;
2390;SDS011;22957;50.824;4.360;2024-03-17T15:28:36;3.50;;;1.03;;
2390;SDS011;22957;50.824;4.360;2024-03-17T15:31:07;2.93;;;0.97;;